Hauptseite
METAR-TAF:

METAR-TAF

Flughäfen :

Fliegerhorst Faßberg

Faßberg, Deutschland

Breite: 52-55N, Länge: 010-11E, Höhe: 75 m

Beobachtung

Neuester Wetterbericht von vor 1 Stunde und 0 Minuten, um 07:20 UTC
Wind 9 kt aus Ost
Temperatur 19°C
Luftfeuchtigkeit 46%
Luftdruck 1015 hPa
Sichtweite 10 km oder mehr
Aufgelockert bewölkt in der Höhe von 25000 ft

METAR: ETHS 220720Z 09009KT 9999 SCT250 19/07 Q1015 BLU+BLU+

Zeit: 10:20 (08:20 UTC)

Prognose

Neuester Wetterbericht von vor 1 Stunde und 8 Minuten, um 07:12 UTC
Gültige Prognose vom 22 um 08 UTC bis 22 um 17 UTC
Wind 8 kt aus Ost
Sichtweite 10 km oder mehr
Aufgelockert bewölkt in der Höhe von 25000 ft

TAF: ETHS 220712Z 2208/2217 10008KT 9999 NSW SCT250

Wetterbeobachtungen und Prognosen von mehr als 4000 Flughäfen (METAR und TAF Bericht).

Die verfügbaren Stationen werden durch gelbe und rote Markierungen auf der Karte dargestellt.

Führen Sie die Maus auf sie, um den Namen der Station zu sehen.

Darauf klicken, um die Beobachtung von Wetterbeobachtungen und Prognosen zu sehen.

Um die Karte zu ändern : klicken Sie auf den grünen Tasten mit einem schwarzen Kreuz Zum Vergrößern, auf den grünen Button mit einem Gedankenstrich zu verkleinern, oder auf die grünen Pfeile für benachbarte Karten.


METAR-TAF: